Latest Weather Observations for Grove

IDT60801

Issued at 10:02 am EDT Saturday 10 December 2016 (issued every 30 minutes, with the page automatically refreshed every 10 minutes)

About weather observations | Map of weather stations | Latest weather observations for TAS | Other Formats
Station Details ID: 094220 Name: GROVE (RESEARCH STATION) Lat: -42.99 Lon: 147.07 Height: 65.0 m
Data from the previous 72 hours. | See also: Recent months at Grove
Date/Time
EDT
Temp
°C
App
Temp
°C
Dew
Point
°C
Rel
Hum
%
Delta-T
°C
Wind Press
QNH
hPa
Press
MSL
hPa
Rain since
9am
mm
Dir  Spd
km/h
Gust
km/h
Spd
kts
Gust
kts
10/10:00am 15.3 11.7 6.7 56 4.2 WSW 15 22 8 12 - - 0.0
10/09:30am 14.5 11.7 6.9 60 3.7 SW 11 19 6 10 - - 0.0
10/09:00am 14.0 10.8 6.8 62 3.5 WSW 13 28 7 15 - - 0.4
10/08:30am 14.0 10.4 6.8 62 3.5 WSW 15 22 8 12 - - 0.4
10/08:00am 13.3 10.8 6.7 64 3.2 WSW 9 15 5 8 - - 0.4
10/07:30am 12.6 10.2 7.0 68 2.7 SW 9 15 5 8 - - 0.4
10/07:00am 12.7 11.1 6.2 64 3.1 ESE 4 13 2 7 - - 0.4
10/06:30am 11.9 9.0 6.4 69 2.6 E 11 17 6 9 - - 0.4
10/06:00am 11.3 9.3 6.2 71 2.4 NE 6 7 3 4 - - 0.4
10/05:30am 11.8 9.4 5.3 64 3.0 SSW 7 11 4 6 - - 0.4
10/05:00am 11.4 9.0 5.3 66 2.8 SW 7 13 4 7 - - 0.4
10/04:30am 11.6 8.7 4.8 63 3.1 WSW 9 17 5 9 - - 0.4
10/04:00am 11.3 8.5 5.0 65 2.9 SW 9 17 5 9 - - 0.4
10/03:30am 11.2 7.9 4.8 64 2.9 WSW 11 19 6 10 - - 0.4
10/03:00am 10.8 7.6 4.9 67 2.7 WSW 11 17 6 9 - - 0.4
10/02:30am 10.8 7.9 4.6 65 2.8 SW 9 15 5 8 - - 0.4
10/02:00am 10.9 7.9 3.9 62 3.1 SW 9 19 5 10 - - 0.4
10/01:30am 10.5 7.6 4.5 66 2.7 WSW 9 17 5 9 - - 0.4
10/01:00am 10.5 7.9 4.2 65 2.8 SW 7 13 4 7 - - 0.4
10/12:30am 10.7 7.6 3.7 62 3.1 SW 9 19 5 10 - - 0.4
10/12:00am 10.2 7.2 4.1 66 2.7 S 9 15 5 8 - - 0.4
 
Date/Time
EDT
Temp
°C
App
Temp
°C
Dew
Point
°C
Rel
Hum
%
Delta-T
°C
Wind Press
QNH
hPa
Press
MSL
hPa
Rain since
9am
mm
Dir  Spd
km/h
Gust
km/h
Spd
kts
Gust
kts
09/11:30pm 10.0 6.9 3.6 64 2.8 SW 9 13 5 7 - - 0.4
09/11:00pm 9.5 6.4 3.8 67 2.5 WSW 9 15 5 8 - - 0.4
09/10:30pm 9.6 6.5 3.7 66 2.6 WSW 9 11 5 6 - - 0.4
09/10:00pm 9.5 6.3 3.0 64 2.8 WSW 9 13 5 7 - - 0.4
09/09:30pm 10.2 5.7 2.2 57 3.4 WSW 15 26 8 14 - - 0.4
09/09:00pm 10.2 6.5 2.5 59 3.3 WSW 11 19 6 10 - - 0.4
09/08:30pm 10.1 6.2 3.2 62 3.0 WSW 13 19 7 10 - - 0.4
09/08:00pm 10.3 6.0 3.5 62 3.0 WSW 15 24 8 13 - - 0.4
09/07:30pm 10.6 5.9 3.0 59 3.3 W 17 26 9 14 - - 0.4
09/07:00pm 10.6 5.0 3.3 60 3.2 WSW 22 35 12 19 - - 0.4
09/06:30pm 11.1 5.1 3.4 59 3.4 WSW 24 37 13 20 - - 0.4
09/06:00pm 11.3 5.1 4.2 61 3.2 WSW 26 43 14 23 - - 0.4
09/05:33pm 11.3 4.6 3.4 58 3.5 WSW 28 46 15 25 - - 0.4
09/05:30pm 11.3 5.0 3.9 60 3.3 WSW 26 44 14 24 - - 0.4
09/05:08pm 12.5 5.7 3.0 52 4.2 WSW 28 46 15 25 - - 0.4
09/05:00pm 11.9 4.6 2.5 52 4.1 WSW 30 43 16 23 - - 0.4
09/04:42pm 13.0 6.0 2.2 48 4.7 WSW 28 48 15 26 - - 0.4
09/04:30pm 12.3 5.5 3.0 53 4.1 WSW 28 43 15 23 - - 0.4
09/04:00pm 12.9 5.1 2.7 50 4.5 WSW 33 54 18 29 - - 0.4
09/03:30pm 12.6 4.8 1.4 46 4.8 WSW 32 50 17 27 - - 0.4
09/03:09pm 13.4 6.4 4.0 53 4.3 WSW 30 48 16 26 - - 0.4
09/03:00pm 13.6 6.0 3.7 51 4.5 WSW 33 48 18 26 - - 0.4
09/02:45pm 12.8 5.7 1.6 46 4.8 WSW 28 46 15 25 - - 0.4
09/02:30pm 12.0 5.4 2.0 50 4.3 WSW 26 46 14 25 - - 0.4
09/02:00pm 12.7 4.3 1.5 46 4.8 WSW 35 57 19 31 - - 0.4
09/01:30pm 13.2 5.5 2.2 47 4.8 WSW 32 52 17 28 - - 0.2
09/01:02pm 13.0 6.2 3.1 51 4.4 WSW 28 48 15 26 - - 0.2
09/01:00pm 12.6 6.2 3.1 52 4.2 WSW 26 44 14 24 - - 0.2
09/12:30pm 12.5 6.0 4.9 60 3.5 W 28 43 15 23 - - 0.2
09/12:00pm 10.8 3.7 3.3 60 3.3 WSW 30 43 16 23 - - 0.2
09/11:30am 9.8 3.1 3.9 66 2.6 WSW 28 43 15 23 - - 0.2
09/11:00am 11.3 6.4 5.0 65 2.9 WSW 20 41 11 22 - - 0.2
09/10:30am 10.1 4.7 4.5 68 2.5 W 22 33 12 18 - - 0.2
09/10:00am 8.7 4.2 4.1 73 2.0 SW 17 24 9 13 - - 0.2
09/09:30am 8.9 3.7 2.2 63 2.8 WSW 19 24 10 13 - - 0.0
09/09:00am 7.9 2.8 2.9 70 2.1 SW 19 39 10 21 - - 1.0
09/08:30am 9.0 3.4 0.9 57 3.3 WSW 20 35 11 19 - - 1.0
09/08:00am 8.8 3.3 1.8 61 2.9 WSW 20 28 11 15 - - 1.0
09/07:30am 8.0 2.0 1.1 62 2.8 WSW 22 35 12 19 - - 1.0
09/07:00am 8.0 2.1 1.4 63 2.7 WSW 22 37 12 20 - - 1.0
09/06:30am 7.6 1.2 1.2 64 2.6 WSW 24 41 13 22 - - 1.0
09/06:00am 7.5 2.1 2.5 70 2.1 WSW 20 39 11 21 - - 1.0
09/05:30am 7.5 2.3 2.5 70 2.1 WSW 19 28 10 15 - - 1.0
09/05:00am 7.6 2.4 2.6 70 2.1 WSW 19 28 10 15 - - 1.0
09/04:30am 8.1 2.8 2.9 70 2.2 W 20 32 11 17 - - 1.0
09/04:00am 8.4 2.4 3.3 70 2.2 W 24 37 13 20 - - 1.0
09/03:30am 8.5 1.8 3.4 70 2.2 WSW 28 43 15 23 - - 1.0
09/03:00am 8.5 3.2 5.2 80 1.5 WSW 22 37 12 20 - - 1.0
09/02:30am 8.7 3.1 5.4 80 1.5 WSW 24 39 13 21 - - 1.0
09/02:00am 9.0 3.3 5.0 76 1.8 W 24 33 13 18 - - 1.0
09/01:30am 9.4 4.4 4.7 72 2.1 WSW 20 33 11 18 - - 1.0
09/01:00am 9.9 4.1 4.3 68 2.5 WSW 24 43 13 23 - - 1.0
09/12:30am 10.3 4.2 4.8 69 2.5 WSW 26 43 14 23 - - 1.0
09/12:09am 10.8 4.4 5.4 69 2.5 WSW 28 46 15 25 - - 1.0
09/12:00am 11.0 4.7 5.6 69 2.5 W 28 46 15 25 - - 1.0
 
Date/Time
EDT
Temp
°C
App
Temp
°C
Dew
Point
°C
Rel
Hum
%
Delta-T
°C
Wind Press
QNH
hPa
Press
MSL
hPa
Rain since
9am
mm
Dir  Spd
km/h
Gust
km/h
Spd
kts
Gust
kts
08/11:56pm 11.0 4.7 5.8 70 2.4 W 28 46 15 25 - - 1.0
08/11:30pm 11.5 6.0 5.9 68 2.6 WSW 24 43 13 23 - - 1.0
08/11:00pm 11.9 5.9 6.9 71 2.4 W 28 43 15 23 - - 1.0
08/10:43pm 12.3 6.4 7.6 73 2.3 W 28 54 15 29 - - 1.0
08/10:30pm 12.6 7.4 8.8 77 1.9 W 26 44 14 24 - - 0.8
08/10:26pm 12.8 7.2 8.8 76 2.0 W 28 46 15 25 - - 0.8
08/10:00pm 13.4 9.5 8.8 74 2.3 W 19 35 10 19 - - 0.8
08/09:30pm 13.0 10.2 10.1 82 1.5 W 15 20 8 11 - - 0.8
08/09:00pm 13.0 11.5 10.7 86 1.2 W 9 11 5 6 - - 0.6
08/08:30pm 14.1 10.7 9.0 71 2.6 W 17 26 9 14 - - 0.2
08/08:00pm 15.7 11.1 6.7 55 4.4 W 20 44 11 24 - - 0.2
08/07:30pm 17.8 13.5 5.2 43 6.1 W 17 32 9 17 - - 0.2
08/07:00pm 18.1 12.6 4.2 39 6.6 NNW 22 39 12 21 - - 0.2
08/06:30pm 18.7 13.7 4.5 39 6.8 NNW 20 35 11 19 - - 0.2
08/06:03pm 19.4 12.2 3.2 34 7.6 NW 30 50 16 27 - - 0.2
08/06:00pm 19.3 13.4 3.7 35 7.4 WNW 24 41 13 22 - - 0.2
08/05:30pm 20.1 13.6 4.7 36 7.5 N 28 48 15 26 - - 0.2
08/05:00pm 20.8 13.2 3.7 32 8.2 N 33 57 18 31 - - 0.2
08/04:30pm 22.2 14.4 2.6 27 9.3 N 33 56 18 30 - - 0.2
08/04:00pm 23.3 15.7 0.8 22 10.4 N 30 48 16 26 - - 0.2
08/03:30pm 23.5 15.9 4.0 28 9.6 NNW 33 54 18 29 - - 0.2
08/03:19pm 23.6 17.2 5.4 30 9.2 N 28 59 15 32 - - 0.2
08/03:00pm 23.2 18.1 9.1 40 7.6 N 26 46 14 25 - - 0.2
08/02:51pm 23.4 18.1 9.9 42 7.4 N 28 50 15 27 - - 0.2
08/02:30pm 22.8 18.8 11.8 50 6.2 N 24 35 13 19 - - 0.2
08/02:00pm 22.4 20.6 13.4 56 5.2 N 15 35 8 19 - - 0.2
08/01:30pm 22.3 19.7 13.1 56 5.3 N 19 32 10 17 - - 0.0
08/01:00pm 21.2 17.6 13.0 59 4.7 N 24 41 13 22 - - 0.0
08/12:30pm 20.2 15.1 12.0 59 4.6 N 30 48 16 26 - - 0.0
08/12:00pm 18.3 13.7 12.2 67 3.4 N 28 46 15 25 - - 0.0
08/11:47am 18.0 12.5 12.0 68 3.3 N 32 52 17 28 - - 0.0
08/11:30am 18.4 14.9 12.3 67 3.4 N 22 35 12 19 - - 0.0
08/11:00am 17.9 13.6 10.9 63 3.8 N 24 41 13 22 - - 0.0
08/10:30am 17.1 15.7 11.0 67 3.3 S 9 19 5 10 - - 0.0
08/10:00am 17.2 14.4 8.7 57 4.4 E 13 24 7 13 - - 0.0
08/09:30am 15.9 13.6 8.9 63 3.6 E 11 20 6 11 - - 0.0
08/09:00am 15.2 13.0 8.0 62 3.6 E 9 19 5 10 - - 1.0
08/08:30am 12.5 10.8 10.0 85 1.3 SW 9 13 5 7 - - 1.0
08/08:00am 12.7 11.6 10.0 84 1.4 E 6 11 3 6 - - 0.8
08/07:30am 14.0 11.3 7.5 65 3.2 WNW 11 19 6 10 - - 0.0
08/07:00am 14.2 9.3 7.0 62 3.5 NW 22 46 12 25 - - 0.0
08/06:30am 13.8 11.6 7.7 66 3.0 N 9 22 5 12 - - 0.0
08/06:00am 13.6 11.4 7.7 67 2.9 N 9 30 5 16 - - 0.0
08/05:30am 11.1 9.8 9.1 87 1.0 W 6 11 3 6 - - 0.0
08/05:00am 9.6 8.1 9.2 97 0.2 ESE 7 13 4 7 - - 0.0
08/04:30am 9.0 7.9 8.6 97 0.2 W 4 7 2 4 - - 0.0
08/04:00am 8.9 7.4 8.5 97 0.2 N 6 9 3 5 - - 0.0
08/03:30am 8.5 6.9 8.1 97 0.2 SSE 6 11 3 6 - - 0.0
08/03:00am 9.1 7.4 8.3 95 0.4 NNE 7 11 4 6 - - 0.0
08/02:30am 9.0 7.9 8.4 96 0.3 W 4 9 2 5 - - 0.0
08/02:00am 9.2 7.7 8.6 96 0.3 ENE 6 11 3 6 - - 0.0
08/01:30am 10.2 9.0 9.6 96 0.3 NE 6 9 3 5 - - 0.0
08/01:00am 10.2 8.9 9.2 93 0.5 NNE 6 9 3 5 - - 0.0
08/12:30am 10.5 9.7 9.5 93 0.5 N 4 7 2 4 - - 0.0
08/12:00am 11.8 11.5 10.0 89 0.9 ENE 2 6 1 3 - - 0.0
 
Date/Time
EDT
Temp
°C
App
Temp
°C
Dew
Point
°C
Rel
Hum
%
Delta-T
°C
Wind Press
QNH
hPa
Press
MSL
hPa
Rain since
9am
mm
Dir  Spd
km/h
Gust
km/h
Spd
kts
Gust
kts
07/11:30pm 13.0 12.3 9.9 81 1.6 N 4 7 2 4 - - 0.0
07/11:00pm 13.0 13.1 10.1 82 1.5 CALM 0 0 0 0 - - 0.0
07/10:30pm 13.7 11.6 9.6 76 2.1 ENE 11 17 6 9 - - 0.0
07/10:00pm 14.4 10.7 9.6 73 2.5 E 19 20 10 11 - - 0.0
07/09:30pm 16.5 14.7 8.0 57 4.3 S 7 13 4 7 - - 0.0
07/09:00pm 17.2 15.7 8.4 56 4.5 W 6 9 3 5 - - 0.0
07/08:30pm 17.0 16.2 11.1 68 3.2 NE 6 11 3 6 - - 0.0
07/08:00pm 18.3 17.0 10.1 59 4.4 S 7 13 4 7 - - 0.0
07/07:30pm 18.8 17.7 9.8 56 4.8 E 6 9 3 5 - - 0.0
07/07:00pm 18.8 17.6 10.2 57 4.6 NE 7 13 4 7 - - 0.0
07/06:30pm 19.4 17.3 9.9 54 5.1 ENE 11 15 6 8 - - 0.0
07/06:00pm 19.7 17.8 10.5 55 5.0 NE 11 17 6 9 - - 0.0
07/05:30pm 19.4 16.2 10.1 55 5.0 E 17 24 9 13 - - 0.0
07/05:00pm 20.6 17.7 9.6 49 5.9 SE 15 22 8 12 - - 0.0
07/04:30pm 23.0 18.8 4.0 29 9.3 W 15 22 8 12 - - 0.0
07/04:00pm 22.9 19.7 6.8 35 8.3 W 13 22 7 12 - - 0.0
07/03:30pm 21.6 17.9 6.5 37 7.7 SW 15 22 8 12 - - 0.0
07/03:00pm 21.0 16.8 5.8 37 7.6 SW 17 28 9 15 - - 0.0
07/02:30pm 22.0 18.6 5.7 34 8.2 WNW 13 22 7 12 - - 0.0
07/02:00pm 20.0 15.5 6.0 40 7.0 NW 19 24 10 13 - - 0.0
07/01:30pm 19.6 14.9 5.1 38 7.1 NW 19 33 10 18 - - 0.0
07/01:00pm 20.5 16.0 6.2 39 7.2 NW 19 35 10 19 - - 0.0
07/12:30pm 20.6 16.1 6.3 39 7.2 WNW 19 28 10 15 - - 0.0
07/12:00pm 19.9 16.4 7.4 44 6.4 W 15 24 8 13 - - 0.0
07/11:30am 19.2 15.4 7.7 47 5.9 WNW 17 26 9 14 - - 0.0
07/11:00am 17.7 13.9 7.6 51 5.1 WNW 17 24 9 13 - - 0.0
07/10:30am 17.2 12.7 7.0 51 5.1 W 20 30 11 16 - - 0.0

Other Formats:

Comma delimited format used in spreadsheet applications
http://www.bom.gov.au/fwo/IDT60801/IDT60801.95977.axf

JavaScript Object Notation format (JSON) in row-major order
http://www.bom.gov.au/fwo/IDT60801/IDT60801.95977.json